sensor_id;sensor_type;location;lat;lon;timestamp;temperature;humidity
78571;SHT31;67861;51.966;5.672;2023-04-01T00:00:44;13.5;71.1
78571;SHT31;67861;51.966;5.672;2023-04-01T00:03:15;13.5;71.1
78571;SHT31;67861;51.966;5.672;2023-04-01T00:05:45;13.5;71.2
78571;SHT31;67861;51.966;5.672;2023-04-01T00:08:15;13.5;71.1
78571;SHT31;67861;51.966;5.672;2023-04-01T00:10:45;13.5;71.2
78571;SHT31;67861;51.966;5.672;2023-04-01T00:13:16;13.5;71.2
78571;SHT31;67861;51.966;5.672;2023-04-01T00:15:48;13.5;71.2
78571;SHT31;67861;51.966;5.672;2023-04-01T00:18:20;13.5;71.1
78571;SHT31;67861;51.966;5.672;2023-04-01T00:20:52;13.5;71.1
78571;SHT31;67861;51.966;5.672;2023-04-01T00:23:22;13.5;71.1
78571;SHT31;67861;51.966;5.672;2023-04-01T00:25:52;13.5;71.2
78571;SHT31;67861;51.966;5.672;2023-04-01T00:28:22;13.5;71.1
78571;SHT31;67861;51.966;5.672;2023-04-01T00:30:52;13.5;71.2
78571;SHT31;67861;51.966;5.672;2023-04-01T00:33:22;13.6;71.1
78571;SHT31;67861;51.966;5.672;2023-04-01T00:35:52;13.6;71.0
78571;SHT31;67861;51.966;5.672;2023-04-01T00:38:22;13.6;70.8
78571;SHT31;67861;51.966;5.672;2023-04-01T00:40:57;13.6;70.7
78571;SHT31;67861;51.966;5.672;2023-04-01T00:43:30;13.6;70.7
78571;SHT31;67861;51.966;5.672;2023-04-01T00:46:01;13.6;70.8
78571;SHT31;67861;51.966;5.672;2023-04-01T00:48:34;13.7;70.7
78571;SHT31;67861;51.966;5.672;2023-04-01T00:51:08;13.7;70.6
78571;SHT31;67861;51.966;5.672;2023-04-01T00:53:44;13.7;70.6
78571;SHT31;67861;51.966;5.672;2023-04-01T00:56:22;13.7;70.6
78571;SHT31;67861;51.966;5.672;2023-04-01T00:58:58;13.7;70.7
78571;SHT31;67861;51.966;5.672;2023-04-01T01:01:31;13.7;70.7
78571;SHT31;67861;51.966;5.672;2023-04-01T01:04:02;13.7;70.8
78571;SHT31;67861;51.966;5.672;2023-04-01T01:06:46;13.8;70.6
78571;SHT31;67861;51.966;5.672;2023-04-01T01:09:25;13.8;70.7
78571;SHT31;67861;51.966;5.672;2023-04-01T01:12:03;13.8;70.7
78571;SHT31;67861;51.966;5.672;2023-04-01T01:14:48;13.8;70.7
78571;SHT31;67861;51.966;5.672;2023-04-01T01:17:27;13.8;70.5
78571;SHT31;67861;51.966;5.672;2023-04-01T01:24:35;13.8;70.3
78571;SHT31;67861;51.966;5.672;2023-04-01T01:27:10;13.8;70.3
78571;SHT31;67861;51.966;5.672;2023-04-01T01:34:43;13.8;69.6
78571;SHT31;67861;51.966;5.672;2023-04-01T01:37:18;13.8;69.5
78571;SHT31;67861;51.966;5.672;2023-04-01T01:39:54;13.8;69.2
78571;SHT31;67861;51.966;5.672;2023-04-01T01:42:28;13.8;68.8
78571;SHT31;67861;51.966;5.672;2023-04-01T01:45:00;13.8;68.9
78571;SHT31;67861;51.966;5.672;2023-04-01T01:47:32;13.8;69.0
78571;SHT31;67861;51.966;5.672;2023-04-01T01:50:04;13.7;68.9
78571;SHT31;67861;51.966;5.672;2023-04-01T01:52:34;13.7;68.7
78571;SHT31;67861;51.966;5.672;2023-04-01T01:55:24;13.7;68.7
78571;SHT31;67861;51.966;5.672;2023-04-01T01:57:59;13.7;69.0
78571;SHT31;67861;51.966;5.672;2023-04-01T02:00:31;13.6;69.1
78571;SHT31;67861;51.966;5.672;2023-04-01T02:03:02;13.6;69.1
78571;SHT31;67861;51.966;5.672;2023-04-01T02:05:34;13.6;69.1
78571;SHT31;67861;51.966;5.672;2023-04-01T02:08:07;13.6;69.3
78571;SHT31;67861;51.966;5.672;2023-04-01T02:10:42;13.6;69.3
78571;SHT31;67861;51.966;5.672;2023-04-01T02:13:17;13.6;69.5
78571;SHT31;67861;51.966;5.672;2023-04-01T02:15:54;13.6;69.7
78571;SHT31;67861;51.966;5.672;2023-04-01T02:18:28;13.6;69.7
78571;SHT31;67861;51.966;5.672;2023-04-01T02:21:00;13.6;69.6
78571;SHT31;67861;51.966;5.672;2023-04-01T02:23:35;13.6;69.7
78571;SHT31;67861;51.966;5.672;2023-04-01T02:26:07;13.6;69.8
78571;SHT31;67861;51.966;5.672;2023-04-01T02:28:41;13.5;69.7
78571;SHT31;67861;51.966;5.672;2023-04-01T02:31:14;13.5;69.8
78571;SHT31;67861;51.966;5.672;2023-04-01T02:33:45;13.5;69.8
78571;SHT31;67861;51.966;5.672;2023-04-01T02:36:17;13.5;69.9
78571;SHT31;67861;51.966;5.672;2023-04-01T02:38:48;13.5;69.8
78571;SHT31;67861;51.966;5.672;2023-04-01T02:41:21;13.5;70.2
78571;SHT31;67861;51.966;5.672;2023-04-01T02:43:51;13.5;70.2
78571;SHT31;67861;51.966;5.672;2023-04-01T02:46:21;13.5;70.0
78571;SHT31;67861;51.966;5.672;2023-04-01T02:48:51;13.5;70.0
78571;SHT31;67861;51.966;5.672;2023-04-01T02:51:21;13.5;70.0
78571;SHT31;67861;51.966;5.672;2023-04-01T02:53:51;13.5;70.0
78571;SHT31;67861;51.966;5.672;2023-04-01T02:56:21;13.5;69.8
78571;SHT31;67861;51.966;5.672;2023-04-01T02:58:51;13.5;69.8
78571;SHT31;67861;51.966;5.672;2023-04-01T03:01:25;13.5;69.8
78571;SHT31;67861;51.966;5.672;2023-04-01T03:03:55;13.4;69.7
78571;SHT31;67861;51.966;5.672;2023-04-01T03:06:28;13.4;69.9
78571;SHT31;67861;51.966;5.672;2023-04-01T03:08:58;13.4;69.9
78571;SHT31;67861;51.966;5.672;2023-04-01T03:11:27;13.4;69.8
78571;SHT31;67861;51.966;5.672;2023-04-01T03:13:57;13.4;69.7
78571;SHT31;67861;51.966;5.672;2023-04-01T03:16:27;13.4;69.7
78571;SHT31;67861;51.966;5.672;2023-04-01T03:18:56;13.4;69.6
78571;SHT31;67861;51.966;5.672;2023-04-01T03:21:29;13.4;69.5
78571;SHT31;67861;51.966;5.672;2023-04-01T03:23:59;13.4;69.6
78571;SHT31;67861;51.966;5.672;2023-04-01T03:26:28;13.4;69.6
78571;SHT31;67861;51.966;5.672;2023-04-01T03:28:58;13.4;69.6
78571;SHT31;67861;51.966;5.672;2023-04-01T03:31:28;13.4;69.5
78571;SHT31;67861;51.966;5.672;2023-04-01T03:33:58;13.4;69.6
78571;SHT31;67861;51.966;5.672;2023-04-01T03:36:27;13.4;69.5
78571;SHT31;67861;51.966;5.672;2023-04-01T03:38:57;13.4;69.7
78571;SHT31;67861;51.966;5.672;2023-04-01T03:41:31;13.4;69.5
78571;SHT31;67861;51.966;5.672;2023-04-01T03:44:01;13.4;69.7
78571;SHT31;67861;51.966;5.672;2023-04-01T03:46:32;13.4;69.7
78571;SHT31;67861;51.966;5.672;2023-04-01T03:49:05;13.4;69.6
78571;SHT31;67861;51.966;5.672;2023-04-01T03:51:39;13.4;69.3
78571;SHT31;67861;51.966;5.672;2023-04-01T03:54:10;13.4;69.4
78571;SHT31;67861;51.966;5.672;2023-04-01T03:56:43;13.4;69.5
78571;SHT31;67861;51.966;5.672;2023-04-01T03:59:12;13.4;69.4
78571;SHT31;67861;51.966;5.672;2023-04-01T04:01:44;13.4;69.6
78571;SHT31;67861;51.966;5.672;2023-04-01T04:04:15;13.4;69.7
78571;SHT31;67861;51.966;5.672;2023-04-01T04:06:45;13.4;69.6
78571;SHT31;67861;51.966;5.672;2023-04-01T04:09:15;13.3;69.6
78571;SHT31;67861;51.966;5.672;2023-04-01T04:11:46;13.3;69.9
78571;SHT31;67861;51.966;5.672;2023-04-01T04:14:17;13.3;69.8
78571;SHT31;67861;51.966;5.672;2023-04-01T04:16:49;13.3;69.9
78571;SHT31;67861;51.966;5.672;2023-04-01T04:19:19;13.3;70.0
78571;SHT31;67861;51.966;5.672;2023-04-01T04:21:49;13.3;70.1
78571;SHT31;67861;51.966;5.672;2023-04-01T04:24:19;13.3;70.1
78571;SHT31;67861;51.966;5.672;2023-04-01T04:26:50;13.3;70.2
78571;SHT31;67861;51.966;5.672;2023-04-01T04:29:20;13.3;70.3
78571;SHT31;67861;51.966;5.672;2023-04-01T04:31:50;13.3;70.3
78571;SHT31;67861;51.966;5.672;2023-04-01T04:34:20;13.3;70.4
78571;SHT31;67861;51.966;5.672;2023-04-01T04:36:52;13.3;70.4
78571;SHT31;67861;51.966;5.672;2023-04-01T04:39:22;13.3;70.5
78571;SHT31;67861;51.966;5.672;2023-04-01T04:41:52;13.3;70.5
78571;SHT31;67861;51.966;5.672;2023-04-01T04:44:22;13.3;70.6
78571;SHT31;67861;51.966;5.672;2023-04-01T04:46:52;13.3;70.6
78571;SHT31;67861;51.966;5.672;2023-04-01T04:49:22;13.3;70.8
78571;SHT31;67861;51.966;5.672;2023-04-01T04:51:51;13.3;70.8
78571;SHT31;67861;51.966;5.672;2023-04-01T04:54:21;13.2;70.8
78571;SHT31;67861;51.966;5.672;2023-04-01T04:56:54;13.2;70.9
78571;SHT31;67861;51.966;5.672;2023-04-01T04:59:24;13.3;71.1
78571;SHT31;67861;51.966;5.672;2023-04-01T05:01:57;13.3;71.1
78571;SHT31;67861;51.966;5.672;2023-04-01T05:04:26;13.3;71.1
78571;SHT31;67861;51.966;5.672;2023-04-01T05:06:56;13.3;71.2
78571;SHT31;67861;51.966;5.672;2023-04-01T05:09:26;13.3;71.1
78571;SHT31;67861;51.966;5.672;2023-04-01T05:11:56;13.3;71.1
78571;SHT31;67861;51.966;5.672;2023-04-01T05:14:28;13.3;71.2
78571;SHT31;67861;51.966;5.672;2023-04-01T05:16:58;13.3;71.3
78571;SHT31;67861;51.966;5.672;2023-04-01T05:19:28;13.3;71.2
78571;SHT31;67861;51.966;5.672;2023-04-01T05:21:57;13.3;71.3
78571;SHT31;67861;51.966;5.672;2023-04-01T05:24:27;13.4;71.3
78571;SHT31;67861;51.966;5.672;2023-04-01T05:26:58;13.4;71.4
78571;SHT31;67861;51.966;5.672;2023-04-01T05:29:28;13.4;71.5
78571;SHT31;67861;51.966;5.672;2023-04-01T05:31:59;13.4;71.4
78571;SHT31;67861;51.966;5.672;2023-04-01T05:34:31;13.4;71.6
78571;SHT31;67861;51.966;5.672;2023-04-01T05:37:01;13.4;71.7
78571;SHT31;67861;51.966;5.672;2023-04-01T05:39:35;13.4;71.7
78571;SHT31;67861;51.966;5.672;2023-04-01T05:42:05;13.4;71.7
78571;SHT31;67861;51.966;5.672;2023-04-01T05:44:36;13.4;71.7
78571;SHT31;67861;51.966;5.672;2023-04-01T05:47:06;13.4;71.8
78571;SHT31;67861;51.966;5.672;2023-04-01T05:49:35;13.4;71.8
78571;SHT31;67861;51.966;5.672;2023-04-01T05:52:05;13.4;71.8
78571;SHT31;67861;51.966;5.672;2023-04-01T05:54:35;13.4;71.9
78571;SHT31;67861;51.966;5.672;2023-04-01T05:57:05;13.4;72.0
78571;SHT31;67861;51.966;5.672;2023-04-01T05:59:35;13.4;72.1
78571;SHT31;67861;51.966;5.672;2023-04-01T06:02:04;13.4;72.1
78571;SHT31;67861;51.966;5.672;2023-04-01T06:04:38;13.5;72.0
78571;SHT31;67861;51.966;5.672;2023-04-01T06:07:14;13.5;72.1
78571;SHT31;67861;51.966;5.672;2023-04-01T06:09:45;13.5;72.0
78571;SHT31;67861;51.966;5.672;2023-04-01T06:13:04;13.5;72.2
78571;SHT31;67861;51.966;5.672;2023-04-01T06:15:42;13.5;72.0
78571;SHT31;67861;51.966;5.672;2023-04-01T06:18:31;13.5;71.9
78571;SHT31;67861;51.966;5.672;2023-04-01T06:25:21;13.5;71.9
78571;SHT31;67861;51.966;5.672;2023-04-01T06:28:07;13.5;72.0
78571;SHT31;67861;51.966;5.672;2023-04-01T06:30:43;13.5;72.2
78571;SHT31;67861;51.966;5.672;2023-04-01T06:33:33;13.5;72.2
78571;SHT31;67861;51.966;5.672;2023-04-01T06:36:31;13.5;72.4
78571;SHT31;67861;51.966;5.672;2023-04-01T06:39:25;13.6;72.6
78571;SHT31;67861;51.966;5.672;2023-04-01T06:42:15;13.6;72.5
78571;SHT31;67861;51.966;5.672;2023-04-01T06:44:54;13.6;72.3
78571;SHT31;67861;51.966;5.672;2023-04-01T06:47:40;13.6;72.4
78571;SHT31;67861;51.966;5.672;2023-04-01T06:50:21;13.7;72.2
78571;SHT31;67861;51.966;5.672;2023-04-01T06:53:04;13.7;72.1
78571;SHT31;67861;51.966;5.672;2023-04-01T06:55:42;13.7;72.1
78571;SHT31;67861;51.966;5.672;2023-04-01T06:58:21;13.7;71.8
78571;SHT31;67861;51.966;5.672;2023-04-01T07:00:56;13.7;71.7
78571;SHT31;67861;51.966;5.672;2023-04-01T07:03:33;13.7;71.6
78571;SHT31;67861;51.966;5.672;2023-04-01T07:06:05;13.7;71.4
78571;SHT31;67861;51.966;5.672;2023-04-01T07:08:40;13.8;71.6
78571;SHT31;67861;51.966;5.672;2023-04-01T07:11:20;13.8;71.6
78571;SHT31;67861;51.966;5.672;2023-04-01T07:13:54;13.8;71.6
78571;SHT31;67861;51.966;5.672;2023-04-01T07:16:30;13.8;71.8
78571;SHT31;67861;51.966;5.672;2023-04-01T07:19:08;13.8;71.4
78571;SHT31;67861;51.966;5.672;2023-04-01T07:21:45;13.8;71.4
78571;SHT31;67861;51.966;5.672;2023-04-01T07:24:21;13.8;71.7
78571;SHT31;67861;51.966;5.672;2023-04-01T07:26:58;13.8;71.9
78571;SHT31;67861;51.966;5.672;2023-04-01T07:29:28;13.8;71.9
78571;SHT31;67861;51.966;5.672;2023-04-01T07:32:09;13.8;72.2
78571;SHT31;67861;51.966;5.672;2023-04-01T07:35:15;13.8;72.2
78571;SHT31;67861;51.966;5.672;2023-04-01T07:37:58;13.8;71.7
78571;SHT31;67861;51.966;5.672;2023-04-01T07:40:45;13.8;71.6
78571;SHT31;67861;51.966;5.672;2023-04-01T07:43:36;13.8;71.4
78571;SHT31;67861;51.966;5.672;2023-04-01T07:46:20;13.8;71.8
78571;SHT31;67861;51.966;5.672;2023-04-01T07:49:00;13.8;71.7
78571;SHT31;67861;51.966;5.672;2023-04-01T07:51:37;13.8;71.7
78571;SHT31;67861;51.966;5.672;2023-04-01T07:54:13;13.8;71.4
78571;SHT31;67861;51.966;5.672;2023-04-01T07:56:51;13.8;71.4
78571;SHT31;67861;51.966;5.672;2023-04-01T07:59:33;13.8;71.8
78571;SHT31;67861;51.966;5.672;2023-04-01T08:02:19;13.8;72.2
78571;SHT31;67861;51.966;5.672;2023-04-01T08:04:59;13.8;72.2
78571;SHT31;67861;51.966;5.672;2023-04-01T08:07:36;13.8;71.5
78571;SHT31;67861;51.966;5.672;2023-04-01T08:10:14;13.8;71.3
78571;SHT31;67861;51.966;5.672;2023-04-01T08:12:58;13.8;71.9
78571;SHT31;67861;51.966;5.672;2023-04-01T08:15:37;13.8;72.1
78571;SHT31;67861;51.966;5.672;2023-04-01T08:18:23;13.8;72.0
78571;SHT31;67861;51.966;5.672;2023-04-01T08:20:59;13.8;72.1
78571;SHT31;67861;51.966;5.672;2023-04-01T08:23:33;13.8;72.1
78571;SHT31;67861;51.966;5.672;2023-04-01T08:26:11;13.8;72.6
78571;SHT31;67861;51.966;5.672;2023-04-01T08:28:45;13.8;72.6
78571;SHT31;67861;51.966;5.672;2023-04-01T08:31:30;13.9;72.1
78571;SHT31;67861;51.966;5.672;2023-04-01T08:34:04;13.9;72.0
78571;SHT31;67861;51.966;5.672;2023-04-01T08:36:42;13.9;71.9
78571;SHT31;67861;51.966;5.672;2023-04-01T08:39:18;13.9;72.0
78571;SHT31;67861;51.966;5.672;2023-04-01T08:42:35;13.9;72.0
78571;SHT31;67861;51.966;5.672;2023-04-01T08:46:11;13.9;71.8
78571;SHT31;67861;51.966;5.672;2023-04-01T08:49:19;13.9;72.4
78571;SHT31;67861;51.966;5.672;2023-04-01T08:52:15;13.9;72.1
78571;SHT31;67861;51.966;5.672;2023-04-01T08:55:00;14.0;72.9
78571;SHT31;67861;51.966;5.672;2023-04-01T08:57:44;14.0;73.0
78571;SHT31;67861;51.966;5.672;2023-04-01T09:00:25;14.0;72.4
78571;SHT31;67861;51.966;5.672;2023-04-01T09:03:37;14.0;72.4
78571;SHT31;67861;51.966;5.672;2023-04-01T09:06:33;14.0;72.6
78571;SHT31;67861;51.966;5.672;2023-04-01T09:13:35;14.1;71.7
78571;SHT31;67861;51.966;5.672;2023-04-01T09:17:23;14.1;71.5
78571;SHT31;67861;51.966;5.672;2023-04-01T09:20:23;14.1;71.5
78571;SHT31;67861;51.966;5.672;2023-04-01T09:23:21;14.1;71.7
78571;SHT31;67861;51.966;5.672;2023-04-01T09:26:08;14.1;72.4
78571;SHT31;67861;51.966;5.672;2023-04-01T09:28:49;14.1;71.6
78571;SHT31;67861;51.966;5.672;2023-04-01T09:31:40;14.1;71.9
78571;SHT31;67861;51.966;5.672;2023-04-01T09:35:21;14.2;71.8
78571;SHT31;67861;51.966;5.672;2023-04-01T09:38:04;14.2;72.1
78571;SHT31;67861;51.966;5.672;2023-04-01T09:40:47;14.2;71.9
78571;SHT31;67861;51.966;5.672;2023-04-01T09:43:26;14.2;71.7
78571;SHT31;67861;51.966;5.672;2023-04-01T09:46:11;14.2;71.2
78571;SHT31;67861;51.966;5.672;2023-04-01T09:49:11;14.3;71.5
78571;SHT31;67861;51.966;5.672;2023-04-01T09:51:56;14.3;70.9
78571;SHT31;67861;51.966;5.672;2023-04-01T09:54:44;14.3;71.2
78571;SHT31;67861;51.966;5.672;2023-04-01T09:57:44;14.3;71.1
78571;SHT31;67861;51.966;5.672;2023-04-01T10:08:45;14.4;73.6
78571;SHT31;67861;51.966;5.672;2023-04-01T10:11:30;14.5;72.2
78571;SHT31;67861;51.966;5.672;2023-04-01T10:14:37;14.6;70.9
78571;SHT31;67861;51.966;5.672;2023-04-01T10:17:51;14.7;71.5
78571;SHT31;67861;51.966;5.672;2023-04-01T10:20:56;14.8;71.2
78571;SHT31;67861;51.966;5.672;2023-04-01T10:24:44;14.9;71.6
78571;SHT31;67861;51.966;5.672;2023-04-01T10:27:34;14.9;70.4
78571;SHT31;67861;51.966;5.672;2023-04-01T10:30:21;15.0;72.2
78571;SHT31;67861;51.966;5.672;2023-04-01T10:33:57;15.1;71.1
78571;SHT31;67861;51.966;5.672;2023-04-01T10:37:48;15.2;72.8
78571;SHT31;67861;51.966;5.672;2023-04-01T10:40:41;15.4;72.5
78571;SHT31;67861;51.966;5.672;2023-04-01T10:46:35;15.7;71.3
78571;SHT31;67861;51.966;5.672;2023-04-01T10:49:36;15.8;69.5
78571;SHT31;67861;51.966;5.672;2023-04-01T10:55:04;15.9;68.7
78571;SHT31;67861;51.966;5.672;2023-04-01T10:58:13;16.0;67.4
78571;SHT31;67861;51.966;5.672;2023-04-01T11:01:13;16.1;66.1
78571;SHT31;67861;51.966;5.672;2023-04-01T11:09:43;16.2;65.7
78571;SHT31;67861;51.966;5.672;2023-04-01T11:12:53;16.3;64.8
78571;SHT31;67861;51.966;5.672;2023-04-01T11:16:05;16.3;65.1
78571;SHT31;67861;51.966;5.672;2023-04-01T11:23:55;16.2;65.5
78571;SHT31;67861;51.966;5.672;2023-04-01T11:26:43;16.2;65.1
78571;SHT31;67861;51.966;5.672;2023-04-01T11:29:32;16.2;66.7
78571;SHT31;67861;51.966;5.672;2023-04-01T11:32:20;16.2;65.7
78571;SHT31;67861;51.966;5.672;2023-04-01T11:35:22;16.2;65.5
78571;SHT31;67861;51.966;5.672;2023-04-01T11:38:06;16.2;66.0
78571;SHT31;67861;51.966;5.672;2023-04-01T11:40:45;16.2;67.6
78571;SHT31;67861;51.966;5.672;2023-04-01T11:43:29;16.2;67.0
78571;SHT31;67861;51.966;5.672;2023-04-01T11:46:10;16.2;64.8
78571;SHT31;67861;51.966;5.672;2023-04-01T11:49:00;16.2;65.5
78571;SHT31;67861;51.966;5.672;2023-04-01T11:51:57;16.2;65.0
78571;SHT31;67861;51.966;5.672;2023-04-01T11:54:48;16.1;63.6
78571;SHT31;67861;51.966;5.672;2023-04-01T11:58:16;16.1;64.4
78571;SHT31;67861;51.966;5.672;2023-04-01T12:01:22;16.0;65.4
78571;SHT31;67861;51.966;5.672;2023-04-01T12:07:01;15.9;67.3
78571;SHT31;67861;51.966;5.672;2023-04-01T12:09:42;15.9;67.0
78571;SHT31;67861;51.966;5.672;2023-04-01T12:12:25;15.9;66.7
78571;SHT31;67861;51.966;5.672;2023-04-01T12:15:15;15.9;66.8
78571;SHT31;67861;51.966;5.672;2023-04-01T12:17:56;15.8;67.0
78571;SHT31;67861;51.966;5.672;2023-04-01T12:20:42;15.8;66.9
78571;SHT31;67861;51.966;5.672;2023-04-01T12:23:33;15.8;66.0
78571;SHT31;67861;51.966;5.672;2023-04-01T12:26:18;15.8;65.8
78571;SHT31;67861;51.966;5.672;2023-04-01T12:29:11;15.7;66.2
78571;SHT31;67861;51.966;5.672;2023-04-01T12:31:55;15.7;66.3
78571;SHT31;67861;51.966;5.672;2023-04-01T12:34:57;15.7;65.6
78571;SHT31;67861;51.966;5.672;2023-04-01T12:37:36;15.7;67.1
78571;SHT31;67861;51.966;5.672;2023-04-01T12:41:12;15.7;67.1
78571;SHT31;67861;51.966;5.672;2023-04-01T12:44:10;15.6;66.8
78571;SHT31;67861;51.966;5.672;2023-04-01T12:46:57;15.6;67.3
78571;SHT31;67861;51.966;5.672;2023-04-01T12:49:47;15.6;67.1
78571;SHT31;67861;51.966;5.672;2023-04-01T12:52:28;15.6;66.6
78571;SHT31;67861;51.966;5.672;2023-04-01T12:55:12;15.6;66.3
78571;SHT31;67861;51.966;5.672;2023-04-01T12:58:38;15.6;67.3
78571;SHT31;67861;51.966;5.672;2023-04-01T13:03:50;15.6;66.6
78571;SHT31;67861;51.966;5.672;2023-04-01T13:06:47;15.6;67.6
78571;SHT31;67861;51.966;5.672;2023-04-01T13:09:28;15.7;67.7
78571;SHT31;67861;51.966;5.672;2023-04-01T13:12:18;15.7;67.9
78571;SHT31;67861;51.966;5.672;2023-04-01T13:15:14;15.7;68.6
78571;SHT31;67861;51.966;5.672;2023-04-01T13:17:53;15.8;68.0
78571;SHT31;67861;51.966;5.672;2023-04-01T13:20:36;15.8;67.4
78571;SHT31;67861;51.966;5.672;2023-04-01T13:23:28;15.8;66.3
78571;SHT31;67861;51.966;5.672;2023-04-01T13:26:08;15.8;66.2
78571;SHT31;67861;51.966;5.672;2023-04-01T13:28:44;15.8;66.9
78571;SHT31;67861;51.966;5.672;2023-04-01T13:31:27;15.8;66.7
78571;SHT31;67861;51.966;5.672;2023-04-01T13:34:20;15.8;66.8
78571;SHT31;67861;51.966;5.672;2023-04-01T13:37:09;15.8;67.8
78571;SHT31;67861;51.966;5.672;2023-04-01T13:39:57;15.8;67.6
78571;SHT31;67861;51.966;5.672;2023-04-01T13:42:37;15.8;67.7
78571;SHT31;67861;51.966;5.672;2023-04-01T13:45:15;15.8;67.8
78571;SHT31;67861;51.966;5.672;2023-04-01T13:51:58;15.8;67.6
78571;SHT31;67861;51.966;5.672;2023-04-01T13:54:42;15.7;67.4
78571;SHT31;67861;51.966;5.672;2023-04-01T13:57:26;15.7;67.2
78571;SHT31;67861;51.966;5.672;2023-04-01T14:00:25;15.7;68.0
78571;SHT31;67861;51.966;5.672;2023-04-01T14:03:19;15.7;67.6
78571;SHT31;67861;51.966;5.672;2023-04-01T14:05:56;15.7;67.7
78571;SHT31;67861;51.966;5.672;2023-04-01T14:10:42;15.7;68.0
78571;SHT31;67861;51.966;5.672;2023-04-01T14:13:20;15.7;68.1
78571;SHT31;67861;51.966;5.672;2023-04-01T14:16:08;15.7;67.9
78571;SHT31;67861;51.966;5.672;2023-04-01T14:19:11;15.6;68.3
78571;SHT31;67861;51.966;5.672;2023-04-01T14:21:49;15.6;68.5
78571;SHT31;67861;51.966;5.672;2023-04-01T14:24:45;15.7;69.1
78571;SHT31;67861;51.966;5.672;2023-04-01T14:27:55;15.7;68.4
78571;SHT31;67861;51.966;5.672;2023-04-01T14:30:43;15.7;67.4
78571;SHT31;67861;51.966;5.672;2023-04-01T14:33:26;15.7;67.7
78571;SHT31;67861;51.966;5.672;2023-04-01T14:36:24;15.7;67.6
78571;SHT31;67861;51.966;5.672;2023-04-01T14:39:11;15.7;67.4
78571;SHT31;67861;51.966;5.672;2023-04-01T14:41:48;15.6;67.6
78571;SHT31;67861;51.966;5.672;2023-04-01T14:44:36;15.6;67.6
78571;SHT31;67861;51.966;5.672;2023-04-01T14:47:15;15.6;67.7
78571;SHT31;67861;51.966;5.672;2023-04-01T14:49:52;15.6;68.3
78571;SHT31;67861;51.966;5.672;2023-04-01T14:52:30;15.7;67.9
78571;SHT31;67861;51.966;5.672;2023-04-01T14:55:21;15.7;68.4
78571;SHT31;67861;51.966;5.672;2023-04-01T14:58:07;15.7;68.5
78571;SHT31;67861;51.966;5.672;2023-04-01T15:00:52;15.7;68.2
78571;SHT31;67861;51.966;5.672;2023-04-01T15:03:29;15.7;68.0
78571;SHT31;67861;51.966;5.672;2023-04-01T15:06:16;15.7;67.8
78571;SHT31;67861;51.966;5.672;2023-04-01T15:08:57;15.8;67.9
78571;SHT31;67861;51.966;5.672;2023-04-01T15:11:43;15.8;67.9
78571;SHT31;67861;51.966;5.672;2023-04-01T15:14:45;15.8;67.9
78571;SHT31;67861;51.966;5.672;2023-04-01T15:17:36;15.8;67.3
78571;SHT31;67861;51.966;5.672;2023-04-01T15:20:29;15.8;67.1
78571;SHT31;67861;51.966;5.672;2023-04-01T15:23:15;15.8;67.7
78571;SHT31;67861;51.966;5.672;2023-04-01T15:26:04;15.8;67.5
78571;SHT31;67861;51.966;5.672;2023-04-01T15:28:45;15.8;67.4
78571;SHT31;67861;51.966;5.672;2023-04-01T15:31:24;15.7;68.0
78571;SHT31;67861;51.966;5.672;2023-04-01T15:34:09;15.7;67.9
78571;SHT31;67861;51.966;5.672;2023-04-01T15:36:52;15.7;67.5
78571;SHT31;67861;51.966;5.672;2023-04-01T15:39:40;15.7;68.1
78571;SHT31;67861;51.966;5.672;2023-04-01T15:42:29;15.7;67.2
78571;SHT31;67861;51.966;5.672;2023-04-01T15:45:16;15.7;67.5
78571;SHT31;67861;51.966;5.672;2023-04-01T15:48:01;15.6;66.6
78571;SHT31;67861;51.966;5.672;2023-04-01T15:50:48;15.6;67.5
78571;SHT31;67861;51.966;5.672;2023-04-01T15:53:28;15.6;66.8
78571;SHT31;67861;51.966;5.672;2023-04-01T15:56:10;15.5;66.9
78571;SHT31;67861;51.966;5.672;2023-04-01T15:58:57;15.5;67.1
78571;SHT31;67861;51.966;5.672;2023-04-01T16:01:38;15.5;66.9
78571;SHT31;67861;51.966;5.672;2023-04-01T16:04:28;15.4;67.1
78571;SHT31;67861;51.966;5.672;2023-04-01T16:07:15;15.4;66.7
78571;SHT31;67861;51.966;5.672;2023-04-01T16:09:59;15.3;67.0
78571;SHT31;67861;51.966;5.672;2023-04-01T16:12:52;15.3;66.8
78571;SHT31;67861;51.966;5.672;2023-04-01T16:15:30;15.3;67.0
78571;SHT31;67861;51.966;5.672;2023-04-01T16:23:10;15.2;67.2
78571;SHT31;67861;51.966;5.672;2023-04-01T16:25:43;15.2;67.5
78571;SHT31;67861;51.966;5.672;2023-04-01T16:28:20;15.1;66.7
78571;SHT31;67861;51.966;5.672;2023-04-01T16:31:00;15.1;66.7
78571;SHT31;67861;51.966;5.672;2023-04-01T16:33:38;15.1;66.4
78571;SHT31;67861;51.966;5.672;2023-04-01T16:36:25;15.1;66.7
78571;SHT31;67861;51.966;5.672;2023-04-01T16:39:08;15.0;67.4
78571;SHT31;67861;51.966;5.672;2023-04-01T16:41:41;15.0;67.8
78571;SHT31;67861;51.966;5.672;2023-04-01T16:44:18;15.0;67.5
78571;SHT31;67861;51.966;5.672;2023-04-01T16:46:52;14.9;66.8
78571;SHT31;67861;51.966;5.672;2023-04-01T16:49:33;14.9;67.7
78571;SHT31;67861;51.966;5.672;2023-04-01T16:52:16;14.9;67.8
78571;SHT31;67861;51.966;5.672;2023-04-01T16:54:55;14.9;67.5
78571;SHT31;67861;51.966;5.672;2023-04-01T16:57:35;14.9;67.3
78571;SHT31;67861;51.966;5.672;2023-04-01T17:00:18;14.8;66.7
78571;SHT31;67861;51.966;5.672;2023-04-01T17:03:04;14.8;66.7
78571;SHT31;67861;51.966;5.672;2023-04-01T17:05:46;14.8;67.0
78571;SHT31;67861;51.966;5.672;2023-04-01T17:08:30;14.7;67.0
78571;SHT31;67861;51.966;5.672;2023-04-01T17:11:08;14.7;67.3
78571;SHT31;67861;51.966;5.672;2023-04-01T17:13:46;14.6;67.1
78571;SHT31;67861;51.966;5.672;2023-04-01T17:16:31;14.6;67.6
78571;SHT31;67861;51.966;5.672;2023-04-01T17:19:17;14.6;67.3
78571;SHT31;67861;51.966;5.672;2023-04-01T17:22:01;14.5;66.8
78571;SHT31;67861;51.966;5.672;2023-04-01T17:24:49;14.5;66.6
78571;SHT31;67861;51.966;5.672;2023-04-01T17:27:33;14.4;67.3
78571;SHT31;67861;51.966;5.672;2023-04-01T17:30:18;14.4;66.7
78571;SHT31;67861;51.966;5.672;2023-04-01T17:33:27;14.3;66.7
78571;SHT31;67861;51.966;5.672;2023-04-01T17:36:12;14.3;67.8
78571;SHT31;67861;51.966;5.672;2023-04-01T17:39:18;14.3;67.4
78571;SHT31;67861;51.966;5.672;2023-04-01T17:41:54;14.3;66.8
78571;SHT31;67861;51.966;5.672;2023-04-01T17:44:40;14.2;67.1
78571;SHT31;67861;51.966;5.672;2023-04-01T17:48:47;14.2;66.9
78571;SHT31;67861;51.966;5.672;2023-04-01T17:51:28;14.2;66.7
78571;SHT31;67861;51.966;5.672;2023-04-01T17:54:12;14.1;66.8
78571;SHT31;67861;51.966;5.672;2023-04-01T17:56:58;14.1;66.4
78571;SHT31;67861;51.966;5.672;2023-04-01T17:59:37;14.0;66.9
78571;SHT31;67861;51.966;5.672;2023-04-01T18:02:15;14.0;66.6
78571;SHT31;67861;51.966;5.672;2023-04-01T18:05:05;14.0;66.7
78571;SHT31;67861;51.966;5.672;2023-04-01T18:08:07;13.9;66.9
78571;SHT31;67861;51.966;5.672;2023-04-01T18:11:00;13.9;67.1
78571;SHT31;67861;51.966;5.672;2023-04-01T18:14:57;13.9;66.8
78571;SHT31;67861;51.966;5.672;2023-04-01T18:17:42;13.9;66.1
78571;SHT31;67861;51.966;5.672;2023-04-01T18:20:32;13.8;66.1
78571;SHT31;67861;51.966;5.672;2023-04-01T18:23:19;13.8;66.2
78571;SHT31;67861;51.966;5.672;2023-04-01T18:25:52;13.7;66.1
78571;SHT31;67861;51.966;5.672;2023-04-01T18:28:34;13.7;66.2
78571;SHT31;67861;51.966;5.672;2023-04-01T18:31:12;13.6;66.4
78571;SHT31;67861;51.966;5.672;2023-04-01T18:33:50;13.6;66.7
78571;SHT31;67861;51.966;5.672;2023-04-01T18:36:35;13.6;67.0
78571;SHT31;67861;51.966;5.672;2023-04-01T18:39:12;13.5;66.6